createdAt,value
2017-10-31T00:01:27.025Z,2.30
2017-10-31T00:04:01.353Z,2.08
2017-10-31T00:06:35.778Z,2.17
2017-10-31T00:09:11.003Z,2.40
2017-10-31T00:11:45.288Z,2.15
2017-10-31T00:14:20.664Z,2.25
2017-10-31T00:16:55.047Z,1.77
2017-10-31T00:19:29.457Z,2.12
2017-10-31T00:22:03.899Z,2.60
2017-10-31T00:24:38.405Z,1.90
2017-10-31T00:27:13.569Z,1.70
2017-10-31T00:29:48.092Z,2.47
2017-10-31T00:32:22.542Z,2.10
2017-10-31T00:34:57.028Z,1.90
2017-10-31T00:37:31.546Z,1.80
2017-10-31T00:40:06.054Z,1.60
2017-10-31T00:42:40.612Z,1.70
2017-10-31T00:45:14.908Z,1.73
2017-10-31T00:47:50.164Z,1.40
2017-10-31T00:50:24.527Z,1.40
2017-10-31T00:52:58.890Z,1.58
2017-10-31T00:55:33.400Z,2.70
2017-10-31T00:58:07.757Z,1.30
2017-10-31T01:00:42.104Z,1.30
2017-10-31T01:03:16.447Z,1.98
2017-10-31T01:05:50.875Z,1.58
2017-10-31T01:08:25.288Z,1.10
2017-10-31T01:10:59.743Z,1.00
2017-10-31T01:13:34.902Z,0.80
2017-10-31T01:16:10.280Z,1.40
2017-10-31T01:18:44.759Z,2.00
2017-10-31T01:21:19.215Z,1.37
2017-10-31T01:23:53.632Z,1.80
2017-10-31T01:26:28.084Z,2.10
2017-10-31T01:29:02.492Z,1.70
2017-10-31T01:31:36.905Z,2.00
2017-10-31T01:34:11.455Z,2.47
2017-10-31T01:36:45.943Z,2.00
2017-10-31T01:39:20.294Z,2.65
2017-10-31T01:41:55.503Z,3.03
2017-10-31T01:44:30.752Z,2.62
2017-10-31T01:47:05.265Z,3.10
2017-10-31T01:49:39.687Z,2.83
2017-10-31T01:52:14.928Z,4.00
2017-10-31T01:54:50.174Z,3.65
2017-10-31T01:57:24.570Z,3.67
2017-10-31T01:59:59.044Z,2.80
2017-10-31T02:02:33.544Z,3.92
2017-10-31T02:05:08.069Z,2.53
2017-10-31T02:07:42.614Z,3.33
2017-10-31T02:10:17.768Z,3.12
2017-10-31T02:12:52.081Z,2.87
2017-10-31T02:15:26.647Z,1.92
2017-10-31T02:18:01.091Z,3.42
2017-10-31T02:20:35.598Z,2.30
2017-10-31T02:23:10.244Z,2.10
2017-10-31T02:25:44.701Z,2.42
2017-10-31T02:28:19.196Z,1.60
2017-10-31T02:30:53.646Z,1.98
2017-10-31T02:33:28.029Z,1.77
2017-10-31T02:36:02.501Z,1.90
2017-10-31T02:38:49.068Z,2.00
2017-10-31T02:41:24.311Z,1.90
2017-10-31T02:43:58.756Z,1.70
2017-10-31T02:46:33.199Z,1.52
2017-10-31T02:49:07.572Z,1.45
2017-10-31T02:51:42.708Z,2.78
2017-10-31T02:54:17.108Z,1.85
2017-10-31T02:56:51.559Z,3.62
2017-10-31T02:59:25.908Z,1.80
2017-10-31T03:02:00.312Z,1.40
2017-10-31T03:04:34.772Z,1.25
2017-10-31T03:07:09.192Z,1.50
2017-10-31T03:09:44.430Z,1.10
2017-10-31T03:12:18.944Z,1.45
2017-10-31T03:14:53.436Z,1.20
2017-10-31T03:17:27.998Z,2.35
2017-10-31T03:20:02.513Z,1.90
2017-10-31T03:22:37.012Z,1.30
2017-10-31T03:25:11.524Z,1.37
2017-10-31T03:27:45.956Z,1.35
2017-10-31T03:30:20.523Z,2.30
2017-10-31T03:32:55.020Z,1.30
2017-10-31T03:35:29.557Z,1.33
2017-10-31T03:38:04.752Z,1.48
2017-10-31T03:40:39.295Z,1.20
2017-10-31T03:43:14.447Z,1.62
2017-10-31T03:45:48.777Z,1.25
2017-10-31T03:48:23.086Z,1.20
2017-10-31T03:50:57.532Z,1.35
2017-10-31T03:53:31.891Z,0.95
2017-10-31T03:56:06.377Z,1.00
2017-10-31T03:58:40.927Z,1.10
2017-10-31T04:01:16.968Z,1.40
2017-10-31T04:03:51.315Z,1.80
2017-10-31T04:06:25.753Z,1.30
2017-10-31T04:09:01.061Z,1.40
2017-10-31T04:11:35.475Z,1.20
2017-10-31T04:14:10.656Z,1.30
2017-10-31T04:16:45.771Z,1.52
2017-10-31T04:19:20.298Z,1.20
2017-10-31T04:21:55.416Z,1.60
2017-10-31T04:24:29.813Z,1.15
2017-10-31T04:27:05.087Z,1.25
2017-10-31T04:29:40.243Z,1.15
2017-10-31T04:32:14.748Z,1.62
2017-10-31T04:34:49.146Z,2.05
2017-10-31T04:37:23.548Z,2.00
2017-10-31T04:39:58.042Z,1.67
2017-10-31T04:42:33.211Z,1.60
2017-10-31T04:45:07.580Z,1.77
2017-10-31T04:47:41.990Z,1.50
2017-10-31T04:50:16.459Z,1.52
2017-10-31T04:52:50.993Z,1.27
2017-10-31T04:55:25.548Z,1.27
2017-10-31T04:58:00.077Z,1.58
2017-10-31T05:00:34.576Z,1.37
2017-10-31T05:03:08.980Z,1.62
2017-10-31T05:05:43.306Z,1.95
2017-10-31T05:08:17.663Z,1.45
2017-10-31T05:10:52.217Z,1.87
2017-10-31T05:13:26.707Z,1.98
2017-10-31T05:16:01.183Z,1.87
2017-10-31T05:18:35.609Z,1.35
2017-10-31T05:21:10.020Z,1.95
2017-10-31T05:23:44.500Z,1.70
2017-10-31T05:26:18.843Z,1.60
2017-10-31T05:28:53.326Z,1.40
2017-10-31T05:31:28.407Z,2.20
2017-10-31T05:34:02.795Z,1.45
2017-10-31T05:36:37.276Z,1.30
2017-10-31T05:39:11.697Z,1.73
2017-10-31T05:41:46.231Z,1.73
2017-10-31T05:44:20.687Z,1.62
2017-10-31T05:46:55.152Z,1.60
2017-10-31T05:49:29.476Z,2.20
2017-10-31T05:52:04.000Z,1.87
2017-10-31T05:54:39.222Z,1.60
2017-10-31T05:57:13.725Z,1.60
2017-10-31T05:59:48.169Z,2.35
2017-10-31T06:02:22.574Z,1.65
2017-10-31T06:04:57.804Z,1.50
2017-10-31T06:07:32.632Z,2.20
2017-10-31T06:10:06.920Z,1.52
2017-10-31T06:12:41.467Z,1.33
2017-10-31T06:15:15.780Z,2.25
2017-10-31T06:17:50.170Z,1.45
2017-10-31T06:20:25.367Z,1.30
2017-10-31T06:23:05.518Z,1.87
2017-10-31T06:25:45.599Z,1.45
2017-10-31T06:28:25.632Z,1.12
2017-10-31T06:31:05.743Z,1.50
2017-10-31T06:33:40.163Z,1.42
2017-10-31T06:36:14.612Z,1.42
2017-10-31T06:38:49.046Z,1.65
2017-10-31T06:41:24.263Z,2.33
2017-10-31T06:43:58.796Z,2.20
2017-10-31T06:46:33.197Z,1.45
2017-10-31T06:49:07.553Z,1.40
2017-10-31T06:51:41.953Z,1.98
2017-10-31T06:54:16.452Z,2.40
2017-10-31T06:56:51.045Z,1.62
2017-10-31T06:59:25.513Z,1.62
2017-10-31T07:02:00.265Z,1.62
2017-10-31T07:04:34.765Z,1.90
2017-10-31T07:07:09.144Z,2.60
2017-10-31T07:09:43.556Z,0.98
2017-10-31T07:12:18.023Z,1.95
2017-10-31T07:14:52.436Z,1.50
2017-10-31T07:17:27.680Z,1.52
2017-10-31T07:20:02.056Z,1.45
2017-10-31T07:22:36.485Z,1.12
2017-10-31T07:25:10.965Z,1.80
2017-10-31T07:27:45.466Z,1.45
2017-10-31T07:30:20.600Z,2.00
2017-10-31T07:32:54.930Z,1.48
2017-10-31T07:35:29.303Z,1.67
2017-10-31T07:38:03.661Z,2.08
2017-10-31T07:40:38.384Z,2.33
2017-10-31T07:43:12.808Z,1.65
2017-10-31T07:45:47.252Z,2.05
2017-10-31T07:48:22.409Z,1.95
2017-10-31T07:50:56.951Z,3.40
2017-10-31T07:53:31.472Z,2.40
2017-10-31T07:56:05.928Z,2.33
2017-10-31T07:58:40.753Z,2.40
2017-10-31T08:01:15.172Z,2.05
2017-10-31T08:03:49.595Z,1.37
2017-10-31T08:06:23.991Z,1.70
2017-10-31T08:08:58.334Z,1.60
2017-10-31T08:11:32.743Z,1.60
2017-10-31T08:14:07.260Z,1.52
2017-10-31T08:16:41.768Z,3.35
2017-10-31T08:19:17.008Z,3.35
2017-10-31T08:21:51.493Z,1.62
2017-10-31T08:24:25.948Z,1.92
2017-10-31T08:27:00.371Z,1.73
2017-10-31T08:29:34.686Z,1.75
2017-10-31T08:32:09.015Z,2.22
2017-10-31T08:34:46.763Z,1.90
2017-10-31T08:37:21.116Z,1.85
2017-10-31T08:39:56.963Z,1.50
2017-10-31T08:42:31.569Z,1.45
2017-10-31T08:45:06.019Z,2.17
2017-10-31T08:47:40.465Z,1.60
2017-10-31T08:50:14.825Z,1.92
2017-10-31T08:52:49.175Z,2.00
2017-10-31T08:55:24.404Z,1.30
2017-10-31T08:57:58.766Z,1.10
2017-10-31T09:00:33.245Z,1.65
2017-10-31T09:03:07.633Z,1.50
2017-10-31T09:05:42.168Z,1.10
2017-10-31T09:08:16.734Z,2.40
2017-10-31T09:10:51.065Z,1.60
2017-10-31T09:13:25.395Z,1.67
2017-10-31T09:15:59.765Z,1.98
2017-10-31T09:18:34.412Z,1.62
2017-10-31T09:21:09.614Z,2.22
2017-10-31T09:23:44.065Z,1.98
2017-10-31T09:26:22.420Z,1.90
2017-10-31T09:28:56.803Z,1.95
2017-10-31T09:31:31.216Z,2.00
2017-10-31T09:34:05.552Z,1.83
2017-10-31T09:36:39.989Z,1.12
2017-10-31T09:39:15.130Z,1.73
2017-10-31T09:41:49.560Z,1.35
2017-10-31T09:44:24.241Z,1.98
2017-10-31T09:46:58.718Z,1.40
2017-10-31T09:49:33.073Z,2.10
2017-10-31T09:52:07.473Z,2.15
2017-10-31T09:54:41.866Z,2.37
2017-10-31T09:57:16.265Z,1.83
2017-10-31T09:59:50.685Z,1.73
2017-10-31T10:02:25.141Z,1.80
2017-10-31T10:04:59.508Z,2.00
2017-10-31T10:07:34.603Z,2.08
2017-10-31T10:10:09.089Z,1.52
2017-10-31T10:12:43.884Z,2.08
2017-10-31T10:15:18.259Z,2.45
2017-10-31T10:17:52.857Z,1.62
2017-10-31T10:20:27.220Z,2.00
2017-10-31T10:23:01.790Z,2.35
2017-10-31T10:25:36.308Z,2.72
2017-10-31T10:28:10.959Z,2.50
2017-10-31T10:30:45.493Z,1.58
2017-10-31T10:33:19.977Z,2.20
2017-10-31T10:35:54.425Z,2.40
2017-10-31T10:38:28.776Z,2.30
2017-10-31T10:41:03.092Z,2.62
2017-10-31T10:43:37.707Z,2.30
2017-10-31T10:46:12.152Z,3.42
2017-10-31T10:48:46.592Z,2.83
2017-10-31T10:51:20.927Z,3.50
2017-10-31T10:53:55.292Z,3.90
2017-10-31T10:56:29.794Z,4.32
2017-10-31T10:59:04.219Z,4.07
2017-10-31T11:01:38.523Z,4.47
2017-10-31T11:04:12.840Z,4.00
2017-10-31T11:06:47.365Z,4.72
2017-10-31T11:09:23.640Z,5.32
2017-10-31T11:11:58.337Z,4.70
2017-10-31T11:14:32.697Z,5.22
2017-10-31T11:17:07.424Z,5.00
2017-10-31T11:19:41.981Z,5.82
2017-10-31T11:22:16.278Z,5.78
2017-10-31T11:24:51.496Z,6.70
2017-10-31T11:27:25.991Z,6.87
2017-10-31T11:30:00.407Z,8.43
2017-10-31T11:32:34.763Z,7.18
2017-10-31T11:35:09.133Z,7.47
2017-10-31T11:37:43.639Z,6.00
2017-10-31T11:40:18.176Z,5.62
2017-10-31T11:42:52.760Z,5.93
2017-10-31T11:45:27.160Z,3.22
2017-10-31T11:48:01.787Z,5.43
2017-10-31T11:50:36.265Z,5.35
2017-10-31T11:53:10.930Z,4.28
2017-10-31T11:55:45.416Z,5.07
2017-10-31T11:58:20.100Z,4.97
2017-10-31T12:00:55.231Z,6.95
2017-10-31T12:03:29.732Z,5.03
2017-10-31T12:06:04.176Z,5.40
2017-10-31T12:08:39.265Z,6.97
2017-10-31T12:11:14.597Z,5.55
2017-10-31T12:13:48.985Z,5.80
2017-10-31T12:16:23.467Z,5.93
2017-10-31T12:18:58.311Z,7.75
2017-10-31T12:21:32.840Z,7.28
2017-10-31T12:24:07.352Z,6.75
2017-10-31T12:26:41.932Z,6.18
2017-10-31T12:29:16.491Z,8.30
2017-10-31T12:31:50.872Z,7.85
2017-10-31T12:34:26.442Z,7.85
2017-10-31T12:37:01.688Z,7.15
2017-10-31T12:39:36.020Z,7.45
2017-10-31T12:42:10.568Z,7.30
2017-10-31T12:44:45.152Z,9.60
2017-10-31T12:47:19.657Z,8.63
2017-10-31T12:49:54.328Z,9.75
2017-10-31T12:52:29.416Z,9.13
2017-10-31T12:55:04.096Z,8.20
2017-10-31T12:57:38.640Z,9.18
2017-10-31T13:00:13.282Z,8.95
2017-10-31T13:02:47.870Z,9.75
2017-10-31T13:05:22.738Z,6.93
2017-10-31T13:07:57.420Z,10.07
2017-10-31T13:10:32.123Z,7.97
2017-10-31T13:13:07.028Z,7.68
2017-10-31T13:15:42.600Z,7.90
2017-10-31T13:18:18.160Z,8.48
2017-10-31T13:20:52.953Z,8.18
2017-10-31T13:23:27.952Z,8.40
2017-10-31T13:26:03.878Z,7.90
2017-10-31T13:28:39.284Z,7.22
2017-10-31T13:31:14.621Z,7.95
2017-10-31T13:33:50.085Z,4.80
2017-10-31T13:36:26.267Z,8.63
2017-10-31T13:39:02.751Z,5.37
2017-10-31T13:41:38.188Z,7.50
2017-10-31T13:44:13.636Z,7.03
2017-10-31T13:46:49.774Z,6.45
2017-10-31T13:49:24.978Z,6.68
2017-10-31T13:52:00.234Z,6.40
2017-10-31T13:54:35.315Z,6.05
2017-10-31T13:57:10.125Z,6.47
2017-10-31T13:59:45.132Z,5.47
2017-10-31T14:02:20.285Z,8.07
2017-10-31T14:04:56.385Z,5.25
2017-10-31T14:07:31.507Z,9.02
2017-10-31T14:10:06.743Z,7.90
2017-10-31T14:12:41.947Z,5.03
2017-10-31T14:15:16.867Z,6.47
2017-10-31T14:17:51.455Z,7.90
2017-10-31T14:20:26.527Z,4.00
2017-10-31T14:23:02.121Z,6.25
2017-10-31T14:25:36.630Z,5.45
2017-10-31T14:28:11.184Z,7.45
2017-10-31T14:30:45.568Z,4.85
2017-10-31T14:33:20.138Z,5.28
2017-10-31T14:35:54.831Z,5.40
2017-10-31T14:38:29.489Z,4.95
2017-10-31T14:41:04.369Z,7.45
2017-10-31T14:43:38.960Z,7.45
2017-10-31T14:46:13.757Z,6.30
2017-10-31T14:48:48.469Z,4.68
2017-10-31T14:51:23.292Z,5.30
2017-10-31T14:53:58.791Z,4.87
2017-10-31T14:56:33.574Z,5.10
2017-10-31T14:59:09.150Z,4.18
2017-10-31T15:01:43.961Z,4.80
2017-10-31T15:04:19.267Z,4.78
2017-10-31T15:06:54.238Z,4.60
2017-10-31T15:09:28.907Z,5.68
2017-10-31T15:12:03.654Z,3.80
2017-10-31T15:14:38.491Z,8.43
2017-10-31T15:17:13.508Z,5.60
2017-10-31T15:19:48.148Z,5.35
2017-10-31T15:22:22.867Z,4.68
2017-10-31T15:24:57.584Z,6.93
2017-10-31T15:27:32.412Z,4.37
2017-10-31T15:30:07.246Z,3.25
2017-10-31T15:32:42.672Z,6.32
2017-10-31T15:35:18.130Z,5.03
2017-10-31T15:37:53.632Z,5.35
2017-10-31T15:40:28.502Z,6.75
2017-10-31T15:43:03.202Z,6.97
2017-10-31T15:45:37.858Z,5.70
2017-10-31T15:48:13.462Z,7.97
2017-10-31T15:50:48.210Z,7.37
2017-10-31T15:53:23.624Z,4.57
2017-10-31T15:55:58.353Z,6.78
2017-10-31T15:58:33.127Z,9.40
2017-10-31T16:01:07.770Z,10.77
2017-10-31T16:03:42.439Z,5.47
2017-10-31T16:06:17.146Z,8.63
2017-10-31T16:08:51.666Z,6.80
2017-10-31T16:11:26.218Z,7.55
2017-10-31T16:14:01.023Z,8.48
2017-10-31T16:16:35.961Z,9.20
2017-10-31T16:19:10.824Z,7.55
2017-10-31T16:21:45.428Z,7.20
2017-10-31T16:24:20.413Z,8.50
2017-10-31T16:26:55.140Z,6.80
2017-10-31T16:29:29.938Z,7.95
2017-10-31T16:32:04.709Z,9.10
2017-10-31T16:34:39.408Z,9.82
2017-10-31T16:37:14.169Z,10.10
2017-10-31T16:39:49.281Z,8.90
2017-10-31T16:42:23.895Z,8.48
2017-10-31T16:44:59.498Z,10.18
2017-10-31T16:47:34.450Z,8.95
2017-10-31T16:50:09.309Z,10.25
2017-10-31T16:52:44.122Z,11.63
2017-10-31T16:55:19.019Z,8.40
2017-10-31T16:57:54.405Z,9.50
2017-10-31T17:00:29.026Z,8.27
2017-10-31T17:03:03.576Z,9.85
2017-10-31T17:05:38.410Z,11.50
2017-10-31T17:08:13.239Z,9.20
2017-10-31T17:10:48.096Z,7.75
2017-10-31T17:13:22.775Z,11.25
2017-10-31T17:15:58.273Z,9.05
2017-10-31T17:18:33.116Z,10.70
2017-10-31T17:21:07.889Z,10.60
2017-10-31T17:23:42.625Z,11.15
2017-10-31T17:26:18.783Z,12.48
2017-10-31T17:28:53.735Z,11.80
2017-10-31T17:31:28.590Z,9.93
2017-10-31T17:34:03.188Z,10.35
2017-10-31T17:36:38.045Z,10.30
2017-10-31T17:39:12.660Z,12.02
2017-10-31T17:41:47.733Z,12.02
2017-10-31T17:44:22.308Z,11.70
2017-10-31T17:46:57.010Z,12.77
2017-10-31T17:49:31.816Z,13.48
2017-10-31T17:52:06.647Z,12.63
2017-10-31T17:54:41.462Z,14.70
2017-10-31T17:57:16.799Z,15.25
2017-10-31T17:59:51.566Z,14.13
2017-10-31T18:02:26.282Z,13.07
2017-10-31T18:05:01.098Z,14.65
2017-10-31T18:07:35.932Z,16.65
2017-10-31T18:10:10.608Z,13.23
2017-10-31T18:12:45.466Z,17.52
2017-10-31T18:15:20.337Z,17.10
2017-10-31T18:17:55.094Z,13.82
2017-10-31T18:20:29.931Z,16.02
2017-10-31T18:23:04.774Z,16.02
2017-10-31T18:25:39.979Z,17.25
2017-10-31T18:28:14.873Z,17.85
2017-10-31T18:30:49.534Z,16.15
2017-10-31T18:33:24.503Z,16.35
2017-10-31T18:35:59.444Z,20.73
2017-10-31T18:38:34.869Z,18.10
2017-10-31T18:41:09.691Z,16.52
2017-10-31T18:43:46.389Z,20.90
2017-10-31T18:46:21.120Z,18.10
2017-10-31T18:48:56.538Z,19.40
2017-10-31T18:51:31.320Z,20.33
2017-10-31T18:54:06.177Z,17.48
2017-10-31T18:56:41.690Z,13.52
2017-10-31T18:59:16.737Z,22.70
2017-10-31T19:01:51.574Z,20.12
2017-10-31T19:04:26.561Z,19.67
2017-10-31T19:07:02.604Z,15.95
2017-10-31T19:09:38.464Z,17.75
2017-10-31T19:12:13.323Z,20.37
2017-10-31T19:14:48.080Z,14.02
2017-10-31T19:17:22.745Z,19.95
2017-10-31T19:19:57.554Z,18.15
2017-10-31T19:22:32.382Z,21.02
2017-10-31T19:25:07.238Z,21.90
2017-10-31T19:27:42.037Z,17.60
2017-10-31T19:30:17.780Z,18.62
2017-10-31T19:32:52.634Z,20.33
2017-10-31T19:35:27.408Z,22.25
2017-10-31T19:38:02.969Z,22.48
2017-10-31T19:40:37.646Z,22.62
2017-10-31T19:43:12.619Z,18.25
2017-10-31T19:45:47.495Z,19.75
2017-10-31T19:48:22.545Z,19.48
2017-10-31T19:50:57.404Z,18.27
2017-10-31T19:53:33.068Z,21.52
2017-10-31T19:56:08.052Z,23.33
2017-10-31T19:58:42.885Z,24.27
2017-10-31T20:01:17.552Z,19.90
2017-10-31T20:03:52.570Z,23.67
2017-10-31T20:06:27.475Z,20.50
2017-10-31T20:09:03.141Z,18.15
2017-10-31T20:11:38.263Z,27.87
2017-10-31T20:14:13.173Z,20.77
2017-10-31T20:16:48.199Z,24.10
2017-10-31T20:19:24.219Z,17.40
2017-10-31T20:21:59.012Z,20.70
2017-10-31T20:24:33.768Z,22.85
2017-10-31T20:27:08.642Z,26.25
2017-10-31T20:29:44.355Z,11.98
2017-10-31T20:32:20.031Z,17.92
2017-10-31T20:34:56.612Z,23.75
2017-10-31T20:37:31.399Z,22.45
2017-10-31T20:40:06.242Z,24.33
2017-10-31T20:42:41.084Z,18.17
2017-10-31T20:45:16.446Z,25.92
2017-10-31T20:47:51.296Z,25.20
2017-10-31T20:50:27.914Z,22.08
2017-10-31T20:53:02.936Z,21.30
2017-10-31T20:55:38.604Z,24.25
2017-10-31T20:58:13.334Z,22.30
2017-10-31T21:00:48.347Z,23.48
2017-10-31T21:03:26.401Z,17.75
2017-10-31T21:06:01.297Z,26.52
2017-10-31T21:08:36.977Z,24.17
2017-10-31T21:11:11.768Z,26.35
2017-10-31T21:13:46.602Z,23.27
2017-10-31T21:16:21.427Z,30.08
2017-10-31T21:18:56.299Z,28.80
2017-10-31T21:21:31.174Z,18.95
2017-10-31T21:24:06.089Z,29.98
2017-10-31T21:26:40.971Z,9.38
2017-10-31T21:29:15.763Z,32.80
2017-10-31T21:31:50.672Z,35.60
2017-10-31T21:34:25.323Z,34.05
2017-10-31T21:37:00.193Z,27.23
2017-10-31T21:39:35.868Z,23.75
2017-10-31T21:42:12.134Z,29.83
2017-10-31T21:44:47.605Z,30.95
2017-10-31T21:47:22.223Z,27.37
2017-10-31T21:49:56.922Z,36.47
2017-10-31T21:52:31.444Z,31.70
2017-10-31T21:55:05.947Z,25.83
2017-10-31T21:57:40.532Z,30.50
2017-10-31T22:00:14.944Z,34.20
2017-10-31T22:02:49.454Z,33.72
2017-10-31T22:05:24.251Z,37.45
2017-10-31T22:07:59.738Z,32.58
2017-10-31T22:10:34.863Z,37.72
2017-10-31T22:13:09.336Z,32.00
2017-10-31T22:15:43.791Z,26.00
2017-10-31T22:18:18.332Z,31.27
2017-10-31T22:20:52.763Z,34.17
2017-10-31T22:23:27.192Z,37.22
2017-10-31T22:26:02.355Z,29.77
2017-10-31T22:28:36.872Z,28.98
2017-10-31T22:31:11.368Z,28.98
2017-10-31T22:33:45.924Z,30.62
2017-10-31T22:36:21.198Z,35.38
2017-10-31T22:38:55.758Z,28.25
2017-10-31T22:41:30.843Z,33.67
2017-10-31T22:44:05.964Z,31.90
2017-10-31T22:46:40.367Z,27.75
2017-10-31T22:49:14.977Z,23.62
2017-10-31T22:51:49.479Z,22.48
2017-10-31T22:54:23.892Z,21.75
2017-10-31T22:56:58.337Z,20.70
2017-10-31T22:59:35.397Z,29.33
2017-10-31T23:02:09.843Z,26.95
2017-10-31T23:04:44.349Z,22.37
2017-10-31T23:07:19.516Z,22.15
2017-10-31T23:09:54.071Z,20.00
2017-10-31T23:12:28.588Z,20.33
2017-10-31T23:15:03.829Z,26.27
2017-10-31T23:17:38.169Z,20.37
2017-10-31T23:20:12.571Z,17.65
2017-10-31T23:22:46.939Z,26.23
2017-10-31T23:25:21.417Z,20.42
2017-10-31T23:27:55.788Z,22.27
2017-10-31T23:30:31.241Z,23.40
2017-10-31T23:33:05.627Z,18.50
2017-10-31T23:35:40.103Z,20.17
2017-10-31T23:38:14.453Z,25.00
2017-10-31T23:40:48.859Z,23.87
2017-10-31T23:43:23.351Z,21.75
2017-10-31T23:45:57.827Z,21.75
2017-10-31T23:48:32.304Z,18.75
2017-10-31T23:51:07.283Z,20.08
2017-10-31T23:53:41.781Z,18.90
2017-10-31T23:56:16.811Z,14.40
2017-10-31T23:58:51.229Z,21.05
